createdAt,value
2023-04-02T00:01:36.721Z,87.37
2023-04-02T00:04:08.956Z,87.91
2023-04-02T00:06:40.414Z,87.50
2023-04-02T00:09:13.190Z,87.34
2023-04-02T00:11:42.178Z,87.20
2023-04-02T00:14:19.268Z,86.95
2023-04-02T00:16:45.953Z,87.41
2023-04-02T00:19:19.699Z,86.94
2023-04-02T00:21:46.976Z,86.47
2023-04-02T00:24:17.284Z,87.17
2023-04-02T00:26:49.010Z,87.38
2023-04-02T00:29:16.628Z,87.23
2023-04-02T00:31:48.747Z,87.60
2023-04-02T00:34:23.035Z,87.68
2023-04-02T00:36:50.952Z,87.93
2023-04-02T00:39:23.117Z,87.50
2023-04-02T00:42:06.834Z,87.41
2023-04-02T00:44:37.903Z,87.07
2023-04-02T00:47:12.167Z,87.59
2023-04-02T00:49:40.331Z,87.49
2023-04-02T00:52:10.169Z,87.36
2023-04-02T00:54:47.193Z,87.17
2023-04-02T00:57:20.314Z,86.89
2023-04-02T01:00:07.573Z,86.97
2023-04-02T01:02:38.253Z,87.12
2023-04-02T01:05:22.170Z,86.99
2023-04-02T01:07:57.590Z,87.00
2023-04-02T01:10:36.028Z,86.91
2023-04-02T01:13:07.183Z,87.23
2023-04-02T01:15:39.115Z,86.93
2023-04-02T01:18:33.643Z,86.54
2023-04-02T01:21:09.591Z,86.59
2023-04-02T01:23:35.898Z,86.19
2023-04-02T01:26:23.861Z,86.25
2023-04-02T01:29:13.834Z,85.69
2023-04-02T01:31:40.889Z,85.98
2023-04-02T01:34:15.273Z,85.84
2023-04-02T01:36:51.173Z,85.91
2023-04-02T01:39:53.085Z,86.25
2023-04-02T01:42:32.058Z,85.58
2023-04-02T01:45:05.405Z,86.18
2023-04-02T01:47:33.179Z,86.17
2023-04-02T01:50:26.159Z,86.15
2023-04-02T01:52:55.480Z,86.04
2023-04-02T01:55:45.895Z,85.77
2023-04-02T01:58:13.924Z,85.80
2023-04-02T02:00:51.407Z,85.47
2023-04-02T02:03:19.088Z,85.86
2023-04-02T02:05:46.444Z,85.64
2023-04-02T02:08:40.288Z,85.18
2023-04-02T02:11:08.343Z,85.47
2023-04-02T02:13:34.804Z,85.50
2023-04-02T02:16:02.040Z,85.24
2023-04-02T02:18:29.081Z,85.61
2023-04-02T02:20:58.147Z,85.29
2023-04-02T02:23:24.840Z,85.49
2023-04-02T02:25:51.413Z,85.16
2023-04-02T02:28:33.536Z,84.93
2023-04-02T02:31:03.935Z,85.63
2023-04-02T02:33:39.519Z,85.28
2023-04-02T02:36:08.939Z,85.63
2023-04-02T02:39:01.070Z,85.26
2023-04-02T02:41:35.517Z,85.55
2023-04-02T02:44:24.234Z,85.24
2023-04-02T02:46:54.877Z,85.31
2023-04-02T02:49:28.563Z,84.80
2023-04-02T02:52:03.728Z,84.81
2023-04-02T02:54:32.620Z,85.36
2023-04-02T02:57:03.435Z,85.42
2023-04-02T02:59:30.834Z,85.04
2023-04-02T03:01:58.154Z,85.02
2023-04-02T03:04:25.302Z,84.92
2023-04-02T03:06:53.197Z,84.55
2023-04-02T03:09:31.445Z,84.60
2023-04-02T03:12:15.843Z,84.78
2023-04-02T03:14:54.785Z,84.08
2023-04-02T03:17:26.106Z,84.62
2023-04-02T03:19:57.614Z,84.30
2023-04-02T03:22:27.121Z,84.14
2023-04-02T03:25:01.891Z,84.16
2023-04-02T03:27:31.232Z,83.62
2023-04-02T03:30:03.957Z,83.93
2023-04-02T03:32:33.041Z,84.30
2023-04-02T03:35:03.482Z,83.75
2023-04-02T03:38:00.793Z,83.02
2023-04-02T03:40:31.963Z,83.42
2023-04-02T03:43:04.045Z,82.98
2023-04-02T03:45:37.063Z,82.94
2023-04-02T03:48:10.633Z,82.98
2023-04-02T03:50:47.442Z,82.87
2023-04-02T03:53:13.835Z,83.04
2023-04-02T03:55:41.881Z,82.56
2023-04-02T03:58:18.857Z,82.78
2023-04-02T04:00:51.912Z,82.87
2023-04-02T04:03:24.579Z,82.21
2023-04-02T04:05:53.822Z,82.21
2023-04-02T04:08:42.442Z,82.00
2023-04-02T04:11:14.377Z,82.05
2023-04-02T04:13:54.429Z,82.15
2023-04-02T04:16:27.410Z,81.81
2023-04-02T04:19:03.516Z,82.13
2023-04-02T04:21:31.178Z,82.24
2023-04-02T04:24:03.758Z,81.71
2023-04-02T04:26:57.142Z,81.47
2023-04-02T04:29:47.124Z,82.01
2023-04-02T04:32:32.337Z,81.59
2023-04-02T04:35:26.007Z,80.49
2023-04-02T04:37:58.821Z,81.43
2023-04-02T04:40:36.464Z,81.14
2023-04-02T04:43:15.988Z,80.61
2023-04-02T04:45:55.844Z,80.95
2023-04-02T04:48:50.058Z,80.47
2023-04-02T04:51:24.077Z,80.64
2023-04-02T04:53:52.531Z,81.18
2023-04-02T04:56:22.231Z,80.25
2023-04-02T04:58:50.830Z,80.43
2023-04-02T05:01:23.228Z,79.73
2023-04-02T05:03:58.643Z,80.12
2023-04-02T05:06:52.019Z,79.47
2023-04-02T05:09:24.627Z,80.05
2023-04-02T05:12:10.991Z,79.80
2023-04-02T05:14:50.632Z,79.80
2023-04-02T05:17:21.432Z,79.90
2023-04-02T05:19:53.240Z,80.22
2023-04-02T05:22:22.062Z,80.42
2023-04-02T05:24:53.812Z,79.91
2023-04-02T05:27:29.106Z,79.71
2023-04-02T05:30:10.641Z,80.00
2023-04-02T05:32:42.670Z,79.96
2023-04-02T05:35:15.634Z,80.07
2023-04-02T05:37:42.256Z,80.51
2023-04-02T05:40:44.517Z,79.67
2023-04-02T05:43:15.670Z,80.47
2023-04-02T05:45:44.414Z,80.25
2023-04-02T05:48:19.473Z,79.85
2023-04-02T05:50:49.595Z,80.15
2023-04-02T05:53:29.165Z,79.83
2023-04-02T05:56:00.003Z,80.39
2023-04-02T05:58:36.169Z,80.17
2023-04-02T06:01:24.107Z,79.91
2023-04-02T06:03:56.162Z,80.42
2023-04-02T06:06:43.954Z,79.89
2023-04-02T06:09:19.944Z,79.63
2023-04-02T06:11:49.712Z,79.63
2023-04-02T06:14:16.753Z,79.99
2023-04-02T06:16:44.802Z,79.04
2023-04-02T06:19:17.307Z,79.56
2023-04-02T06:21:49.844Z,79.63
2023-04-02T06:24:20.373Z,79.38
2023-04-02T06:26:52.095Z,79.00
2023-04-02T06:29:28.207Z,79.35
2023-04-02T06:32:02.420Z,79.63
2023-04-02T06:34:30.006Z,79.43
2023-04-02T06:36:59.202Z,79.80
2023-04-02T06:39:27.140Z,79.46
2023-04-02T06:42:13.601Z,79.72
2023-04-02T06:44:40.370Z,79.84
2023-04-02T06:47:13.428Z,80.09
2023-04-02T06:49:51.333Z,79.58
2023-04-02T06:52:50.249Z,79.79
2023-04-02T06:55:45.154Z,80.11
2023-04-02T06:58:11.651Z,79.77
2023-04-02T07:00:43.240Z,79.34
2023-04-02T07:03:17.094Z,79.15
2023-04-02T07:05:43.497Z,79.03
2023-04-02T07:08:09.918Z,79.07
2023-04-02T07:10:37.021Z,78.86
2023-04-02T07:13:03.472Z,78.59
2023-04-02T07:15:30.037Z,78.40
2023-04-02T07:17:59.027Z,78.15
2023-04-02T07:20:37.561Z,76.89
2023-04-02T07:23:04.226Z,78.29
2023-04-02T07:25:30.878Z,77.41
2023-04-02T07:27:57.418Z,77.87
2023-04-02T07:30:24.053Z,77.69
2023-04-02T07:32:51.686Z,77.58
2023-04-02T07:35:18.257Z,77.31
2023-04-02T07:37:44.691Z,77.40
2023-04-02T07:40:20.506Z,76.44
2023-04-02T07:42:46.914Z,76.86
2023-04-02T07:45:13.850Z,76.78
2023-04-02T07:47:40.809Z,76.77
2023-04-02T07:50:08.536Z,76.55
2023-04-02T07:52:42.545Z,76.26
2023-04-02T07:55:13.491Z,76.22
2023-04-02T07:57:50.493Z,75.63
2023-04-02T08:00:17.735Z,75.86
2023-04-02T08:02:44.399Z,75.83
2023-04-02T08:05:11.112Z,75.57
2023-04-02T08:07:38.983Z,75.49
2023-04-02T08:10:06.997Z,75.41
2023-04-02T08:12:33.454Z,75.60
2023-04-02T08:14:59.963Z,75.91
2023-04-02T08:17:31.258Z,75.15
2023-04-02T08:20:01.000Z,74.96
2023-04-02T08:22:28.796Z,73.94
2023-04-02T08:24:56.348Z,74.03
2023-04-02T08:27:24.342Z,73.96
2023-04-02T08:29:51.184Z,74.64
2023-04-02T08:32:18.111Z,74.40
2023-04-02T08:34:45.460Z,74.30
2023-04-02T08:37:12.567Z,74.33
2023-04-02T08:39:40.031Z,74.11
2023-04-02T08:42:38.249Z,72.00
2023-04-02T08:45:38.300Z,72.21
2023-04-02T08:48:06.441Z,73.26
2023-04-02T08:50:35.443Z,73.00
2023-04-02T08:53:07.869Z,73.02
2023-04-02T08:55:42.718Z,72.29
2023-04-02T08:58:28.010Z,71.97
2023-04-02T09:00:55.479Z,71.00
2023-04-02T09:03:31.870Z,68.26
2023-04-02T09:05:58.509Z,64.53
2023-04-02T09:08:26.192Z,68.89
2023-04-02T09:11:09.067Z,62.33
2023-04-02T09:13:41.036Z,61.72
2023-04-02T09:16:12.756Z,59.90
2023-04-02T09:18:39.458Z,62.02
2023-04-02T09:21:21.130Z,52.58
2023-04-02T09:23:48.210Z,56.97
2023-04-02T09:26:41.097Z,52.07
2023-04-02T09:29:13.499Z,52.02
2023-04-02T09:31:50.899Z,52.07
2023-04-02T09:34:31.847Z,49.30
2023-04-02T09:37:07.245Z,47.16
2023-04-02T09:39:34.389Z,50.93
2023-04-02T09:42:06.183Z,47.57
2023-04-02T09:44:32.876Z,49.00
2023-04-02T09:47:03.912Z,47.71
2023-04-02T09:49:33.130Z,46.60
2023-04-02T09:52:09.002Z,45.01
2023-04-02T09:54:41.793Z,45.76
2023-04-02T09:57:23.522Z,45.45
2023-04-02T10:00:41.821Z,44.56
2023-04-02T10:03:32.807Z,43.63
2023-04-02T10:06:15.427Z,42.27
2023-04-02T10:08:43.685Z,44.91
2023-04-02T10:11:30.958Z,42.02
2023-04-02T10:14:06.570Z,42.78
2023-04-02T10:16:44.837Z,43.02
2023-04-02T10:19:36.738Z,43.02
2023-04-02T10:22:12.817Z,43.75
2023-04-02T10:24:39.719Z,44.68
2023-04-02T10:27:29.547Z,43.93
2023-04-02T10:30:21.111Z,44.43
2023-04-02T10:33:38.705Z,45.04
2023-04-02T10:36:35.605Z,43.36
2023-04-02T10:39:08.421Z,43.21
2023-04-02T10:41:46.827Z,43.11
2023-04-02T10:44:33.416Z,43.04
2023-04-02T10:47:19.772Z,43.16
2023-04-02T10:49:46.339Z,43.59
2023-04-02T10:52:21.593Z,43.70
2023-04-02T10:54:47.955Z,43.61
2023-04-02T10:57:32.640Z,43.43
2023-04-02T11:00:09.295Z,43.15
2023-04-02T11:02:49.474Z,42.80
2023-04-02T11:05:45.289Z,43.24
2023-04-02T11:08:51.285Z,43.05
2023-04-02T11:11:21.447Z,42.85
2023-04-02T11:13:58.973Z,42.95
2023-04-02T11:16:25.635Z,42.79
2023-04-02T11:19:17.178Z,42.17
2023-04-02T11:22:01.469Z,43.09
2023-04-02T11:24:34.408Z,44.08
2023-04-02T11:27:11.099Z,43.39
2023-04-02T11:29:39.533Z,43.80
2023-04-02T11:32:25.179Z,44.41
2023-04-02T11:35:06.341Z,43.59
2023-04-02T11:37:37.360Z,44.11
2023-04-02T11:40:15.766Z,43.66
2023-04-02T11:42:44.006Z,44.15
2023-04-02T11:45:28.706Z,41.76
2023-04-02T11:48:01.342Z,42.72
2023-04-02T11:50:39.564Z,42.87
2023-04-02T11:53:21.554Z,43.38
2023-04-02T11:55:54.001Z,42.61
2023-04-02T11:58:27.473Z,43.08
2023-04-02T12:01:14.710Z,43.11
2023-04-02T12:04:05.621Z,43.04
2023-04-02T12:06:49.228Z,41.19
2023-04-02T12:09:19.668Z,41.66
2023-04-02T12:11:47.410Z,40.61
2023-04-02T12:14:41.540Z,39.17
2023-04-02T12:17:16.264Z,39.00
2023-04-02T12:19:48.094Z,40.51
2023-04-02T12:22:19.470Z,39.95
2023-04-02T12:24:47.584Z,40.69
2023-04-02T12:27:27.612Z,41.20
2023-04-02T12:29:56.031Z,42.95
2023-04-02T12:32:29.893Z,41.89
2023-04-02T12:34:58.076Z,42.51
2023-04-02T12:37:27.280Z,41.90
2023-04-02T12:40:01.204Z,41.46
2023-04-02T12:42:37.585Z,39.81
2023-04-02T12:45:06.792Z,40.90
2023-04-02T12:47:33.301Z,40.41
2023-04-02T12:50:00.762Z,39.14
2023-04-02T12:52:28.930Z,39.08
2023-04-02T12:55:00.718Z,38.15
2023-04-02T12:57:31.729Z,37.39
2023-04-02T13:00:06.115Z,37.65
2023-04-02T13:02:44.581Z,36.11
2023-04-02T13:05:11.818Z,36.57
2023-04-02T13:07:38.590Z,36.38
2023-04-02T13:10:23.124Z,34.98
2023-04-02T13:12:55.419Z,34.29
2023-04-02T13:15:23.900Z,35.00
2023-04-02T13:18:02.591Z,33.32
2023-04-02T13:20:39.206Z,33.06
2023-04-02T13:23:31.319Z,32.65
2023-04-02T13:26:10.892Z,33.39
2023-04-02T13:28:37.533Z,33.32
2023-04-02T13:31:04.095Z,32.98
2023-04-02T13:33:30.555Z,32.54
2023-04-02T13:35:57.026Z,31.87
2023-04-02T13:38:23.484Z,31.64
2023-04-02T13:40:51.290Z,31.68
2023-04-02T13:43:19.731Z,30.90
2023-04-02T13:45:52.072Z,28.96
2023-04-02T13:48:18.707Z,30.33
2023-04-02T13:50:46.216Z,30.30
2023-04-02T13:53:28.358Z,28.46
2023-04-02T13:55:54.984Z,28.93
2023-04-02T13:58:21.689Z,28.95
2023-04-02T14:00:48.281Z,29.22
2023-04-02T14:03:21.755Z,27.25
2023-04-02T14:05:58.078Z,27.74
2023-04-02T14:08:53.330Z,26.97
2023-04-02T14:12:04.716Z,26.74
2023-04-02T14:14:56.153Z,26.01
2023-04-02T14:17:56.496Z,26.88
2023-04-02T14:21:04.073Z,27.29
2023-04-02T14:23:33.455Z,27.84
2023-04-02T14:26:11.942Z,26.38
2023-04-02T14:28:50.615Z,26.00
2023-04-02T14:31:23.132Z,26.50
2023-04-02T14:33:57.739Z,25.13
2023-04-02T14:36:42.700Z,25.33
2023-04-02T14:39:24.498Z,25.69
2023-04-02T14:42:05.105Z,24.58
2023-04-02T14:44:37.021Z,26.33
2023-04-02T14:47:33.995Z,26.04
2023-04-02T14:50:11.988Z,26.03
2023-04-02T14:52:41.834Z,26.27
2023-04-02T14:55:32.821Z,25.42
2023-04-02T14:58:02.423Z,26.29
2023-04-02T15:00:41.814Z,25.91
2023-04-02T15:03:32.382Z,25.12
2023-04-02T15:06:06.842Z,25.78
2023-04-02T15:09:08.311Z,25.69
2023-04-02T15:11:43.471Z,25.23
2023-04-02T15:14:17.140Z,25.44
2023-04-02T15:16:43.961Z,26.66
2023-04-02T15:19:13.353Z,26.20
2023-04-02T15:21:58.947Z,25.67
2023-04-02T15:24:50.601Z,25.10
2023-04-02T15:27:49.540Z,25.80
2023-04-02T15:30:22.071Z,26.12
2023-04-02T15:32:49.316Z,26.95
2023-04-02T15:35:55.619Z,26.33
2023-04-02T15:38:37.350Z,26.48
2023-04-02T15:41:23.543Z,26.22
2023-04-02T15:44:14.712Z,24.96
2023-04-02T15:46:59.431Z,25.39
2023-04-02T15:49:54.885Z,26.39
2023-04-02T15:52:30.348Z,26.70
2023-04-02T15:55:02.746Z,27.89
2023-04-02T15:57:54.652Z,26.68
2023-04-02T16:00:28.354Z,26.99
2023-04-02T16:03:20.970Z,27.19
2023-04-02T16:06:16.862Z,27.59
2023-04-02T16:09:14.376Z,28.42
2023-04-02T16:11:40.787Z,28.66
2023-04-02T16:14:17.213Z,28.12
2023-04-02T16:16:46.710Z,28.62
2023-04-02T16:19:28.927Z,29.30
2023-04-02T16:22:26.930Z,28.92
2023-04-02T16:25:00.280Z,28.95
2023-04-02T16:27:37.720Z,28.51
2023-04-02T16:30:29.957Z,28.95
2023-04-02T16:33:31.845Z,28.92
2023-04-02T16:36:08.929Z,28.91
2023-04-02T16:38:50.595Z,29.00
2023-04-02T16:41:35.254Z,32.64
2023-04-02T16:44:20.622Z,31.29
2023-04-02T16:46:56.174Z,31.88
2023-04-02T16:49:51.930Z,33.23
2023-04-02T16:52:21.306Z,32.94
2023-04-02T16:54:53.729Z,34.05
2023-04-02T16:57:58.912Z,32.12
2023-04-02T17:00:36.997Z,32.91
2023-04-02T17:03:37.492Z,34.29
2023-04-02T17:06:09.212Z,37.41
2023-04-02T17:08:59.696Z,35.81
2023-04-02T17:11:47.545Z,36.64
2023-04-02T17:14:41.250Z,36.54
2023-04-02T17:17:11.523Z,37.42
2023-04-02T17:19:39.417Z,37.07
2023-04-02T17:22:06.276Z,37.53
2023-04-02T17:24:39.374Z,39.30
2023-04-02T17:27:29.146Z,40.99
2023-04-02T17:30:01.272Z,41.47
2023-04-02T17:32:31.445Z,41.64
2023-04-02T17:35:12.568Z,42.64
2023-04-02T17:37:43.376Z,43.21
2023-04-02T17:40:26.252Z,44.15
2023-04-02T17:43:05.445Z,44.36
2023-04-02T17:46:05.270Z,46.93
2023-04-02T17:48:45.390Z,46.61
2023-04-02T17:51:11.756Z,46.34
2023-04-02T17:54:07.341Z,49.20
2023-04-02T17:56:52.649Z,49.19
2023-04-02T17:59:28.228Z,49.60
2023-04-02T18:02:12.913Z,48.54
2023-04-02T18:05:20.711Z,51.33
2023-04-02T18:08:05.740Z,50.82
2023-04-02T18:10:39.673Z,51.27
2023-04-02T18:13:23.946Z,52.63
2023-04-02T18:16:02.166Z,51.10
2023-04-02T18:18:58.908Z,54.07
2023-04-02T18:21:39.421Z,54.09
2023-04-02T18:24:10.451Z,52.89
2023-04-02T18:27:03.192Z,54.42
2023-04-02T18:29:41.989Z,54.60
2023-04-02T18:32:34.214Z,55.50
2023-04-02T18:35:03.504Z,54.35
2023-04-02T18:37:39.422Z,55.41
2023-04-02T18:40:24.485Z,54.76
2023-04-02T18:43:28.635Z,55.59
2023-04-02T18:45:59.375Z,55.03
2023-04-02T18:48:56.607Z,56.62
2023-04-02T18:51:25.135Z,55.18
2023-04-02T18:53:57.147Z,56.05
2023-04-02T18:56:24.587Z,55.52
2023-04-02T18:58:56.748Z,56.78
2023-04-02T19:01:28.126Z,56.75
2023-04-02T19:04:04.545Z,57.46
2023-04-02T19:06:42.061Z,57.30
2023-04-02T19:09:18.128Z,57.21
2023-04-02T19:11:44.514Z,56.43
2023-04-02T19:14:14.241Z,57.22
2023-04-02T19:17:02.581Z,58.78
2023-04-02T19:19:37.948Z,57.48
2023-04-02T19:22:41.743Z,58.98
2023-04-02T19:25:30.407Z,59.32
2023-04-02T19:28:07.719Z,58.93
2023-04-02T19:30:57.289Z,59.22
2023-04-02T19:33:44.299Z,59.24
2023-04-02T19:36:38.792Z,60.73
2023-04-02T19:39:28.161Z,61.67
2023-04-02T19:42:03.437Z,60.83
2023-04-02T19:44:29.976Z,60.16
2023-04-02T19:46:56.561Z,60.44
2023-04-02T19:49:33.731Z,63.04
2023-04-02T19:52:00.397Z,61.60
2023-04-02T19:54:26.850Z,61.66
2023-04-02T19:56:53.445Z,61.98
2023-04-02T19:59:20.006Z,62.56
2023-04-02T20:01:46.924Z,62.87
2023-04-02T20:04:13.839Z,62.89
2023-04-02T20:06:40.402Z,63.14
2023-04-02T20:09:08.497Z,63.23
2023-04-02T20:11:36.788Z,63.73
2023-04-02T20:14:03.584Z,63.44
2023-04-02T20:16:32.690Z,63.90
2023-04-02T20:18:59.170Z,63.85
2023-04-02T20:21:26.726Z,63.65
2023-04-02T20:23:54.395Z,63.08
2023-04-02T20:26:22.499Z,63.18
2023-04-02T20:28:49.012Z,62.68
2023-04-02T20:31:18.146Z,62.30
2023-04-02T20:33:45.274Z,62.40
2023-04-02T20:36:16.321Z,62.75
2023-04-02T20:38:43.478Z,62.59
2023-04-02T20:41:09.979Z,62.45
2023-04-02T20:43:37.573Z,62.52
2023-04-02T20:46:05.644Z,62.70
2023-04-02T20:48:33.110Z,62.09
2023-04-02T20:51:00.558Z,62.71
2023-04-02T20:53:29.154Z,62.83
2023-04-02T20:56:06.380Z,63.27
2023-04-02T20:58:34.218Z,62.80
2023-04-02T21:01:17.179Z,63.00
2023-04-02T21:03:43.872Z,62.77
2023-04-02T21:06:15.793Z,62.53
2023-04-02T21:08:42.878Z,62.29
2023-04-02T21:11:10.028Z,62.05
2023-04-02T21:13:37.071Z,61.74
2023-04-02T21:16:05.218Z,61.93
2023-04-02T21:18:32.712Z,61.60
2023-04-02T21:21:01.381Z,62.02
2023-04-02T21:23:29.083Z,61.77
2023-04-02T21:25:58.595Z,62.16
2023-04-02T21:28:25.351Z,61.84
2023-04-02T21:30:51.821Z,61.75
2023-04-02T21:33:18.244Z,62.20
2023-04-02T21:35:44.700Z,61.54
2023-04-02T21:38:11.129Z,61.68
2023-04-02T21:40:37.522Z,61.87
2023-04-02T21:43:03.938Z,62.02
2023-04-02T21:45:30.438Z,62.13
2023-04-02T21:47:56.882Z,61.81
2023-04-02T21:50:23.425Z,61.85
2023-04-02T21:52:49.901Z,62.24
2023-04-02T21:55:16.359Z,62.40
2023-04-02T21:57:42.843Z,62.49
2023-04-02T22:00:12.327Z,62.59
2023-04-02T22:02:39.063Z,62.62
2023-04-02T22:05:06.130Z,62.97
2023-04-02T22:07:32.564Z,62.92
2023-04-02T22:09:59.009Z,63.27
2023-04-02T22:12:25.482Z,62.89
2023-04-02T22:14:51.883Z,63.03
2023-04-02T22:17:18.306Z,62.93
2023-04-02T22:19:44.757Z,63.76
2023-04-02T22:22:11.181Z,63.45
2023-04-02T22:24:37.579Z,63.41
2023-04-02T22:27:04.011Z,63.53
2023-04-02T22:29:30.392Z,63.73
2023-04-02T22:31:56.827Z,63.97
2023-04-02T22:34:23.327Z,63.99
2023-04-02T22:36:49.879Z,64.24
2023-04-02T22:39:17.074Z,64.25
2023-04-02T22:41:43.644Z,64.20
2023-04-02T22:44:14.145Z,64.66
2023-04-02T22:46:40.679Z,64.43
2023-04-02T22:49:07.275Z,64.31
2023-04-02T22:51:33.848Z,64.80
2023-04-02T22:54:00.235Z,63.75
2023-04-02T22:56:32.033Z,65.07
2023-04-02T22:58:58.822Z,64.98
2023-04-02T23:01:32.192Z,64.85
2023-04-02T23:03:58.646Z,64.62
2023-04-02T23:06:25.379Z,64.50
2023-04-02T23:08:52.284Z,64.71
2023-04-02T23:11:24.691Z,64.25
2023-04-02T23:13:52.507Z,64.09
2023-04-02T23:16:19.725Z,64.20
2023-04-02T23:18:48.076Z,63.94
2023-04-02T23:21:15.561Z,64.38
2023-04-02T23:23:42.002Z,64.48
2023-04-02T23:26:13.727Z,64.50
2023-04-02T23:28:40.644Z,63.64
2023-04-02T23:31:09.322Z,63.44
2023-04-02T23:33:35.736Z,63.84
2023-04-02T23:36:17.629Z,62.76
2023-04-02T23:38:44.111Z,62.61
2023-04-02T23:41:14.722Z,62.52
2023-04-02T23:43:41.377Z,62.28
2023-04-02T23:46:07.782Z,61.87
2023-04-02T23:48:34.289Z,61.63
2023-04-02T23:51:00.832Z,61.94
2023-04-02T23:53:27.281Z,61.80
2023-04-02T23:55:53.693Z,61.98
2023-04-02T23:58:20.220Z,61.68
